Time;durP1;ratioP1;P1;durP2;ratioP2;P2;SDS_P1;SDS_P2;PMS_P1;PMS_P2;Temp;Humidity;BMP_temperature;BMP_pressure;BME280_temperature;BME280_humidity;BME280_pressure;Samples;Min_cycle;Max_cycle;Signal;HPM_P1;HPM_P2
2023/05/02 00:02:30;;;;;;;2.72;1.52;;;;;;;13.66;93.21;100563.72;10327959;28;20053;-68
2023/05/02 00:07:32;;;;;;;3.97;1.70;;;;;;;13.22;94.00;100503.94;10325571;28;20042;-68
2023/05/02 00:12:33;;;;;;;3.53;1.83;;;;;;;13.55;94.71;100578.38;10476633;27;20059;-68
2023/05/02 00:17:34;;;;;;;3.33;1.50;;;;;;;12.93;95.53;100510.00;10623074;27;20039;-68
2023/05/02 00:22:35;;;;;;;4.07;1.50;;;;;;;12.97;95.98;100529.16;10605207;27;20080;-68
2023/05/02 00:27:35;;;;;;;3.35;2.10;;;;;;;13.39;96.93;100607.84;10624386;27;20371;-68
2023/05/02 00:32:36;;;;;;;4.60;3.22;;;;;;;13.28;97.78;100598.44;10623130;27;20051;-67
2023/05/02 00:37:38;;;;;;;5.53;3.15;;;;;;;13.23;98.94;100603.47;10622656;27;20035;-67
2023/05/02 00:42:38;;;;;;;5.10;3.05;;;;;;;12.71;99.52;100519.69;10622264;27;20046;-67
2023/05/02 00:47:39;;;;;;;4.63;2.05;;;;;;;13.19;100.00;100612.81;10622535;27;20046;-67
2023/05/02 00:52:40;;;;;;;3.85;2.10;;;;;;;12.61;100.00;100523.59;10622553;27;20063;-67
2023/05/02 00:57:41;;;;;;;3.95;1.90;;;;;;;13.11;100.00;100615.56;10622503;27;20375;-67
2023/05/02 01:03:02;;;;;;;3.65;1.83;;;;;;;13.17;100.00;100617.50;10622384;27;20035;-67
2023/05/02 01:08:33;;;;;;;3.58;1.98;;;;;;;13.12;100.00;100623.38;10620482;28;20042;-67
2023/05/02 01:13:36;;;;;;;5.55;2.20;;;;;;;13.10;100.00;100628.06;10622307;28;20087;-67
2023/05/02 01:18:41;;;;;;;4.97;2.30;;;;;;;12.61;100.00;100556.38;10626330;27;20058;-67
2023/05/02 01:23:56;;;;;;;4.70;2.00;;;;;;;13.14;100.00;100655.22;10630576;27;20050;-67
2023/05/02 01:29:02;;;;;;;4.18;1.90;;;;;;;13.03;100.00;100662.59;10631088;27;20051;-67
2023/05/02 01:34:08;;;;;;;4.25;2.10;;;;;;;12.97;100.00;100665.16;10610908;27;20039;-67
2023/05/02 01:39:14;;;;;;;3.35;2.30;;;;;;;12.72;100.00;100637.78;10620204;27;20068;-66
2023/05/02 01:44:17;;;;;;;4.13;2.40;;;;;;;12.81;100.00;100675.91;10626802;27;20459;-66
2023/05/02 01:49:20;;;;;;;5.65;2.35;;;;;;;12.81;100.00;100674.06;10628969;27;20063;-66
2023/05/02 01:54:25;;;;;;;5.72;2.22;;;;;;;12.21;100.00;100600.06;10629269;27;20126;-66
2023/05/02 01:59:28;;;;;;;3.42;1.95;;;;;;;12.59;100.00;100694.31;10629868;27;20046;-66
2023/05/02 02:04:31;;;;;;;4.00;2.05;;;;;;;12.51;100.00;100697.84;10610634;27;20045;-66
2023/05/02 02:09:32;;;;;;;5.20;2.15;;;;;;;11.96;100.00;100624.06;10628679;27;20043;-66
2023/05/02 02:14:37;;;;;;;2.80;1.80;;;;;;;11.84;100.00;100622.75;10584822;27;20067;-66
2023/05/02 02:19:40;;;;;;;3.13;1.40;;;;;;;12.11;100.00;100704.09;10585949;28;20040;-66
2023/05/02 02:24:42;;;;;;;4.82;2.20;;;;;;;12.13;100.00;100723.41;10585875;28;20483;-66
2023/05/02 02:29:43;;;;;;;2.50;1.65;;;;;;;12.08;100.00;100726.59;10584866;28;20067;-66
2023/05/02 02:34:44;;;;;;;2.97;1.63;;;;;;;12.06;100.00;100728.59;10585816;28;20066;-66
2023/05/02 02:40:04;;;;;;;5.45;1.92;;;;;;;12.03;100.00;100726.25;10565852;27;20062;-66
2023/05/02 02:45:37;;;;;;;3.70;2.20;;;;;;;12.13;100.00;100750.03;10547337;28;20044;-66
2023/05/02 02:51:13;;;;;;;4.40;2.10;;;;;;;12.19;100.00;100752.03;10542214;28;20043;-65
2023/05/02 02:56:18;;;;;;;9.38;2.60;;;;;;;11.90;100.00;100725.91;10545085;27;20465;-66
2023/05/02 03:01:23;;;;;;;3.05;2.40;;;;;;;12.08;100.00;100758.56;10596667;27;20044;-66
2023/05/02 03:06:24;;;;;;;;;;;;;;;12.15;100.00;100765.88;10624989;27;20043;-66
2023/05/02 03:11:25;;;;;;;2.67;1.58;;;;;;;11.92;100.00;100777.19;10625392;27;20028;-66
2023/05/02 03:16:40;;;;;;;2.92;1.92;;;;;;;11.65;100.00;100725.91;10626280;27;20472;-66
2023/05/02 03:21:41;;;;;;;2.45;1.48;;;;;;;11.85;100.00;100779.69;10624720;27;20043;-66
2023/05/02 03:26:42;;;;;;;4.00;1.27;;;;;;;11.82;100.00;100779.97;10625924;27;20430;-66
2023/05/02 03:31:43;;;;;;;3.42;1.63;;;;;;;11.72;100.00;100781.13;10625379;27;20039;-65
2023/05/02 03:36:43;;;;;;;6.32;1.50;;;;;;;11.64;100.00;100784.63;10625251;27;20062;-66
2023/05/02 03:41:45;;;;;;;3.25;1.33;;;;;;;11.66;100.00;100782.59;10623476;27;20375;-66
2023/05/02 03:46:47;;;;;;;2.47;1.50;;;;;;;11.59;100.00;100771.78;10570180;27;20054;-65
2023/05/02 03:51:47;;;;;;;2.70;1.60;;;;;;;11.60;100.00;100802.72;10540740;28;20520;-67
2023/05/02 03:56:48;;;;;;;4.72;1.60;;;;;;;11.61;100.00;100798.25;10539152;28;20047;-67
2023/05/02 04:01:49;;;;;;;2.90;1.30;;;;;;;11.53;100.00;100792.91;10539038;28;20035;-67
2023/05/02 04:06:50;;;;;;;4.22;1.23;;;;;;;11.60;100.00;100796.56;10521950;28;20044;-67
2023/05/02 04:11:51;;;;;;;2.60;1.17;;;;;;;11.15;100.00;100731.28;10539092;28;20498;-66
2023/05/02 04:16:52;;;;;;;2.35;1.20;;;;;;;11.67;100.00;100816.22;10525615;28;20164;-67
2023/05/02 04:21:53;;;;;;;2.92;1.30;;;;;;;11.70;100.00;100818.56;10580454;28;20520;-65
2023/05/02 04:26:54;;;;;;;4.75;1.40;;;;;;;11.22;100.00;100735.00;10580861;28;20156;-67
2023/05/02 04:31:55;;;;;;;2.25;1.35;;;;;;;11.67;100.00;100802.91;10543880;28;20123;-67
2023/05/02 04:36:55;;;;;;;1.85;0.98;;;;;;;11.81;100.00;100836.84;10538487;28;20192;-65
2023/05/02 04:41:56;;;;;;;3.80;1.30;;;;;;;11.34;100.00;100738.19;10550686;28;20051;-67
2023/05/02 04:46:57;;;;;;;4.00;0.95;;;;;;;11.43;100.00;100753.16;10552705;28;20054;-67
2023/05/02 04:51:58;;;;;;;2.05;1.05;;;;;;;11.90;100.00;100851.03;10562020;28;20093;-66
2023/05/02 04:57:01;;;;;;;2.10;0.90;;;;;;;11.86;100.00;100812.44;10545210;28;20047;-66
2023/05/02 05:02:01;;;;;;;3.95;0.98;;;;;;;11.66;100.00;100766.63;10536576;28;20044;-65
2023/05/02 05:07:03;;;;;;;3.58;1.08;;;;;;;12.31;100.00;100857.25;10537601;28;20425;-65
2023/05/02 05:12:04;;;;;;;2.92;0.90;;;;;;;11.57;100.00;100709.09;10537037;28;20064;-66
2023/05/02 05:17:06;;;;;;;2.00;0.95;;;;;;;11.91;100.00;100746.25;10518887;28;20047;-66
2023/05/02 05:22:07;;;;;;;3.67;1.25;;;;;;;12.67;100.00;100848.88;10537136;28;20109;-66
2023/05/02 05:27:08;;;;;;;2.42;1.02;;;;;;;12.82;100.00;100842.84;10537718;28;20048;-66
2023/05/02 05:32:09;;;;;;;3.35;0.70;;;;;;;12.96;100.00;100850.16;10536580;28;20047;-66
2023/05/02 05:37:10;;;;;;;2.33;0.98;;;;;;;13.09;100.00;100853.09;10537205;28;20476;-66
2023/05/02 05:42:11;;;;;;;2.10;0.88;;;;;;;12.83;100.00;100768.03;10536646;28;20044;-66
2023/05/02 05:47:12;;;;;;;1.38;0.70;;;;;;;13.41;100.00;100849.50;10536445;28;20036;-66
2023/05/02 05:52:12;;;;;;;2.97;0.88;;;;;;;13.32;100.00;100849.72;10536179;28;20077;-66
2023/05/02 05:57:13;;;;;;;2.10;0.70;;;;;;;13.36;100.00;100859.88;10535582;28;20488;-66
2023/05/02 06:02:15;;;;;;;1.70;0.60;;;;;;;13.31;100.00;100866.72;10536178;28;20388;-66
2023/05/02 06:07:15;;;;;;;1.58;0.77;;;;;;;13.19;100.00;100863.56;10542939;28;20565;-66
2023/05/02 06:12:16;;;;;;;1.95;0.80;;;;;;;12.10;100.00;100707.78;10544078;28;20196;-66
2023/05/02 06:17:17;;;;;;;1.90;0.82;;;;;;;12.92;100.00;100830.16;10543542;28;20501;-66
2023/05/02 06:22:18;;;;;;;2.92;0.80;;;;;;;13.09;100.00;100831.75;10543535;28;20075;-67
2023/05/02 06:27:19;;;;;;;2.55;0.90;;;;;;;13.44;100.00;100867.84;10543222;28;20032;-67
2023/05/02 06:32:20;;;;;;;1.70;0.88;;;;;;;13.50;100.00;100869.00;10542873;28;20040;-66
2023/05/02 06:37:21;;;;;;;2.47;0.90;;;;;;;13.65;100.00;100877.91;10542586;28;20035;-66
2023/05/02 06:42:21;;;;;;;2.65;0.85;;;;;;;13.80;100.00;100879.84;10542537;28;20040;-67
2023/05/02 06:47:23;;;;;;;1.02;0.55;;;;;;;13.73;99.47;100857.50;10541939;28;20070;-67
2023/05/02 06:52:23;;;;;;;1.40;0.63;;;;;;;13.74;97.95;100852.00;10542623;28;20039;-66
2023/05/02 06:57:24;;;;;;;1.05;0.50;;;;;;;14.02;96.55;100879.03;10541973;28;20104;-67
2023/05/02 07:02:25;;;;;;;1.92;0.75;;;;;;;13.64;95.25;100789.97;10541431;28;20036;-67
2023/05/02 07:07:26;;;;;;;1.83;0.57;;;;;;;14.44;93.86;100863.50;10541649;28;20123;-67
2023/05/02 07:12:27;;;;;;;1.75;0.60;;;;;;;14.88;91.87;100858.28;10541357;28;20146;-67
2023/05/02 07:17:28;;;;;;;0.90;0.40;;;;;;;14.84;90.65;100857.00;10540947;28;20044;-67
2023/05/02 07:22:28;;;;;;;2.03;0.57;;;;;;;14.94;90.20;100894.97;10541060;28;20131;-68
2023/05/02 07:27:29;;;;;;;0.82;0.43;;;;;;;15.00;90.39;100902.28;10540877;28;20036;-67
2023/05/02 07:32:30;;;;;;;1.48;0.50;;;;;;;14.76;89.49;100889.16;10540358;28;20510;-68
2023/05/02 07:37:34;;;;;;;1.02;0.40;;;;;;;14.87;89.42;100909.25;10540878;28;20036;-67
2023/05/02 07:42:35;;;;;;;1.58;0.63;;;;;;;14.83;89.26;100911.47;10540429;28;20043;-68
2023/05/02 07:47:36;;;;;;;1.15;0.50;;;;;;;14.71;89.00;100903.06;10540866;28;20445;-68
2023/05/02 07:52:36;;;;;;;1.55;0.75;;;;;;;14.74;88.95;100910.72;10540123;28;20406;-67
2023/05/02 07:57:37;;;;;;;2.83;0.65;;;;;;;14.95;88.77;100904.66;10539534;28;20036;-67
2023/05/02 08:02:40;;;;;;;1.23;0.50;;;;;;;14.97;87.49;100891.94;10538327;28;20481;-68
2023/05/02 08:07:42;;;;;;;1.85;0.50;;;;;;;15.13;86.34;100903.47;10538834;28;20097;-67
2023/05/02 08:12:42;;;;;;;0.80;0.40;;;;;;;15.09;85.42;100896.84;10564576;28;20060;-68
2023/05/02 08:17:43;;;;;;;1.35;0.40;;;;;;;15.14;85.66;100895.28;10581390;28;20053;-68
2023/05/02 08:22:44;;;;;;;1.10;0.47;;;;;;;14.80;85.18;100816.38;10581148;28;20047;-68
2023/05/02 08:27:44;;;;;;;1.15;0.30;;;;;;;15.25;84.39;100891.28;10579605;28;20039;-68
2023/05/02 08:32:46;;;;;;;1.60;0.50;;;;;;;15.37;83.68;100883.63;10580399;28;20036;-68
2023/05/02 08:37:46;;;;;;;1.45;0.73;;;;;;;15.32;84.96;100902.94;10580643;28;20066;-68
2023/05/02 08:42:47;;;;;;;2.38;0.77;;;;;;;14.77;85.03;100837.31;10579339;28;20419;-68
2023/05/02 08:47:49;;;;;;;1.75;0.60;;;;;;;15.23;84.13;100914.75;10579789;28;20520;-67
2023/05/02 08:52:51;;;;;;;7.80;1.20;;;;;;;15.09;84.13;100926.28;10579583;28;20100;-68
2023/05/02 08:57:56;;;;;;;2.13;0.60;;;;;;;14.80;84.21;100895.78;10579936;28;20043;-68
2023/05/02 09:03:05;;;;;;;4.82;0.82;;;;;;;14.97;84.54;100908.00;10579944;28;20044;-67
2023/05/02 09:08:06;;;;;;;1.60;0.60;;;;;;;14.92;84.59;100922.94;10579594;28;20067;-67
2023/05/02 09:13:45;;;;;;;1.60;0.80;;;;;;;15.13;84.91;100911.50;10579260;28;20112;-68
2023/05/02 09:18:48;;;;;;;2.95;0.80;;;;;;;14.73;84.91;100828.00;10547876;28;20070;-67
2023/05/02 09:23:51;;;;;;;1.92;0.80;;;;;;;15.12;85.03;100891.94;10579597;28;20028;-68
2023/05/02 09:28:54;;;;;;;1.37;0.80;;;;;;;15.32;85.15;100913.66;10579209;28;20035;-67
2023/05/02 09:33:55;;;;;;;2.85;1.00;;;;;;;15.18;85.33;100912.63;10579297;28;20053;-69
2023/05/02 09:39:12;;;;;;;2.83;1.27;;;;;;;15.10;86.37;100919.91;10581490;28;20412;-68
2023/05/02 09:44:20;;;;;;;1.80;0.90;;;;;;;15.11;87.16;100935.78;10587229;28;20406;-68
2023/05/02 09:49:44;;;;;;;1.70;1.08;;;;;;;14.76;88.49;100843.69;10587398;28;20429;-68
2023/05/02 09:54:45;;;;;;;2.90;1.15;;;;;;;14.62;87.51;100837.31;10586841;28;20447;-67
2023/05/02 09:59:57;;;;;;;3.03;1.00;;;;;;;15.05;88.78;100942.69;10586290;28;20651;-68
2023/05/02 10:05:00;;;;;;;3.50;0.82;;;;;;;14.81;88.69;100935.75;10586143;28;20039;-68
2023/05/02 10:10:02;;;;;;;2.33;0.98;;;;;;;14.73;88.28;100918.94;10586460;28;20511;-68
2023/05/02 10:15:04;;;;;;;1.80;0.77;;;;;;;14.50;87.83;100871.63;10586432;28;20071;-68
2023/05/02 10:20:06;;;;;;;1.85;0.80;;;;;;;14.74;86.78;100937.47;10586427;28;20050;-67
2023/05/02 10:25:08;;;;;;;2.42;0.75;;;;;;;14.71;86.96;100948.53;10585250;28;20075;-67
2023/05/02 10:30:11;;;;;;;3.33;0.82;;;;;;;14.15;87.05;100863.25;10585709;28;20042;-68
2023/05/02 10:35:12;;;;;;;3.50;0.90;;;;;;;14.59;86.84;100940.09;10585408;28;20122;-67
2023/05/02 10:40:13;;;;;;;1.52;0.70;;;;;;;14.35;86.76;100917.03;10584694;28;20460;-68
2023/05/02 10:45:34;;;;;;;6.10;0.95;;;;;;;14.48;88.23;100926.28;10584283;28;20035;-68
2023/05/02 10:50:47;;;;;;;2.50;0.80;;;;;;;14.66;87.26;100939.38;10584649;28;20096;-68
2023/05/02 10:56:21;;;;;;;2.60;0.90;;;;;;;14.59;87.34;100940.09;10585196;28;20503;-68
2023/05/02 11:01:32;;;;;;;1.20;0.63;;;;;;;14.18;87.26;100931.53;10583521;28;20510;-69
2023/05/02 11:06:54;;;;;;;2.28;0.80;;;;;;;13.60;88.65;100860.75;10565777;28;20452;-69
2023/05/02 11:11:56;;;;;;;2.40;1.05;;;;;;;13.97;89.84;100929.50;10566269;28;20063;-68
2023/05/02 11:16:59;;;;;;;1.52;0.70;;;;;;;13.84;90.13;100927.38;10583779;28;20050;-68
2023/05/02 11:22:18;;;;;;;2.00;0.80;;;;;;;13.72;93.74;100923.44;10583797;28;20038;-68
2023/05/02 11:27:28;;;;;;;1.02;0.60;;;;;;;13.70;94.44;100917.47;10584014;28;20057;-67
2023/05/02 11:32:44;;;;;;;4.85;0.50;;;;;;;13.76;93.70;100915.91;10582682;28;20560;-67
2023/05/02 11:38:03;;;;;;;2.03;0.73;;;;;;;13.65;94.11;100901.94;10582428;28;20043;-68
2023/05/02 11:43:15;;;;;;;1.20;0.60;;;;;;;13.33;94.41;100838.03;10582301;28;20071;-68
2023/05/02 11:48:21;;;;;;;1.17;0.50;;;;;;;13.45;94.25;100845.47;10582636;28;20499;-69
2023/05/02 11:53:28;;;;;;;1.58;0.70;;;;;;;14.02;94.25;100907.59;10581581;28;20040;-68
2023/05/02 11:58:33;;;;;;;4.40;1.50;;;;;;;14.23;92.69;100896.25;10582192;28;20043;-68
2023/05/02 12:03:34;;;;;;;2.53;1.40;;;;;;;14.50;91.17;100901.03;10560888;28;20527;-67
2023/05/02 12:08:34;;;;;;;2.47;0.75;;;;;;;14.76;89.67;100897.19;10598494;27;20041;-67
2023/05/02 12:13:47;;;;;;;0.98;0.40;;;;;;;14.48;87.19;100825.56;10607615;27;20069;-67
2023/05/02 12:18:48;;;;;;;1.40;0.47;;;;;;;15.00;87.12;100874.69;10623256;27;20088;-67
2023/05/02 12:23:49;;;;;;;1.70;0.40;;;;;;;15.01;86.98;100868.31;10623544;27;20529;-67
2023/05/02 12:28:57;;;;;;;1.00;0.40;;;;;;;14.71;87.19;100797.94;10622497;27;20047;-68
2023/05/02 12:33:59;;;;;;;0.90;0.43;;;;;;;14.94;87.29;100821.94;10619678;27;20549;-70
2023/05/02 12:39:02;;;;;;;0.90;0.50;;;;;;;15.25;86.63;100878.75;10603945;27;20045;-70
2023/05/02 12:44:04;;;;;;;1.42;0.30;;;;;;;15.11;86.85;100881.44;10582894;27;20043;-69
2023/05/02 12:49:08;;;;;;;0.70;0.43;;;;;;;15.02;87.48;100872.69;10572645;27;20506;-68
2023/05/02 12:54:19;;;;;;;1.23;0.30;;;;;;;15.08;87.43;100885.31;10556595;28;20044;-67
2023/05/02 12:59:30;;;;;;;0.98;0.40;;;;;;;14.72;87.83;100813.81;10578456;28;20119;-67
2023/05/02 13:04:40;;;;;;;0.50;0.30;;;;;;;15.19;88.14;100900.88;10563540;27;20051;-69
2023/05/02 13:09:41;;;;;;;1.40;0.63;;;;;;;14.39;88.29;100806.09;10553886;28;20749;-69
2023/05/02 13:14:41;;;;;;;1.10;0.40;;;;;;;14.30;89.29;100830.41;10588998;28;20051;-68
2023/05/02 13:19:42;;;;;;;1.98;0.57;;;;;;;14.59;90.17;100897.31;10582632;28;20047;-68
2023/05/02 13:24:45;;;;;;;1.17;0.40;;;;;;;14.79;90.60;100907.50;10572534;28;20062;-69
2023/05/02 13:29:46;;;;;;;1.98;0.70;;;;;;;14.76;90.32;100900.69;10568750;28;20036;-69
2023/05/02 13:34:47;;;;;;;1.90;0.65;;;;;;;14.76;90.03;100894.50;10517153;28;20043;-67
2023/05/02 13:39:48;;;;;;;1.02;0.40;;;;;;;15.16;88.88;100897.75;10536543;28;20066;-68
2023/05/02 13:44:48;;;;;;;1.55;0.40;;;;;;;15.10;87.08;100855.69;10568627;28;20050;-70
2023/05/02 13:49:49;;;;;;;1.40;0.40;;;;;;;15.67;84.98;100922.75;10608289;28;20159;-67
2023/05/02 13:54:50;;;;;;;1.35;0.30;;;;;;;15.72;83.94;100916.84;10621530;28;20039;-70
2023/05/02 13:59:51;;;;;;;0.60;0.38;;;;;;;15.62;83.12;100914.44;10621303;28;20036;-70
2023/05/02 14:04:52;;;;;;;1.55;0.50;;;;;;;15.32;82.63;100867.31;10621718;28;20501;-70
2023/05/02 14:09:53;;;;;;;0.95;0.40;;;;;;;15.59;82.42;100917.50;10620432;28;20057;-70
2023/05/02 14:14:53;;;;;;;2.25;0.60;;;;;;;15.67;82.06;100914.72;10621286;28;20062;-70
2023/05/02 14:19:54;;;;;;;3.50;0.50;;;;;;;15.64;82.02;100904.38;10621311;28;20047;-70
2023/05/02 14:24:55;;;;;;;1.30;0.30;;;;;;;15.51;81.55;100906.88;10622443;27;20027;-70
2023/05/02 14:29:56;;;;;;;0.65;0.30;;;;;;;14.98;82.00;100850.78;10628491;27;20042;-70
2023/05/02 14:34:56;;;;;;;1.27;0.35;;;;;;;15.23;82.24;100910.22;10608322;27;20035;-70
2023/05/02 14:39:57;;;;;;;1.73;0.60;;;;;;;15.23;82.24;100914.75;10614923;27;20498;-70
2023/05/02 14:45:01;;;;;;;1.13;0.30;;;;;;;15.09;82.06;100900.34;10615631;27;20089;-70
2023/05/02 14:50:03;;;;;;;2.23;0.40;;;;;;;15.16;82.27;100903.13;10542353;28;20081;-70
2023/05/02 14:55:04;;;;;;;2.95;0.50;;;;;;;15.07;82.68;100910.41;10542138;28;20036;-70
2023/05/02 15:00:09;;;;;;;3.20;0.40;;;;;;;15.05;83.49;100907.09;10542364;28;20040;-70
2023/05/02 15:05:11;;;;;;;3.90;0.47;;;;;;;15.11;84.15;100926.94;10542154;28;20114;-70
2023/05/02 15:10:11;;;;;;;0.90;0.50;;;;;;;14.59;84.82;100862.56;10534531;28;20055;-70
2023/05/02 15:15:13;;;;;;;3.30;0.68;;;;;;;14.99;84.95;100947.97;10592222;27;20058;-70
2023/05/02 15:20:14;;;;;;;0.93;0.40;;;;;;;14.42;84.66;100865.53;10626416;27;20452;-72
2023/05/02 15:25:15;;;;;;;1.55;0.45;;;;;;;14.88;85.08;100957.25;10592617;27;20092;-72
2023/05/02 15:30:16;;;;;;;0.75;0.40;;;;;;;14.80;85.78;100952.78;10583221;28;20032;-72
2023/05/02 15:35:17;;;;;;;1.55;0.50;;;;;;;14.76;86.00;100956.03;10582930;28;20079;-73
2023/05/02 15:40:18;;;;;;;1.17;0.50;;;;;;;14.62;86.25;100952.28;10590537;27;20546;-73
2023/05/02 15:45:19;;;;;;;1.00;0.40;;;;;;;14.59;86.38;100945.44;10626236;27;20135;-72
2023/05/02 15:50:19;;;;;;;2.50;0.50;;;;;;;14.51;86.65;100942.84;10621838;27;20510;-73
2023/05/02 15:55:20;;;;;;;2.35;0.40;;;;;;;14.59;87.09;100966.00;10614068;27;20053;-73
2023/05/02 16:00:21;;;;;;;3.20;0.50;;;;;;;14.45;87.99;100970.28;10624074;27;20054;-72
2023/05/02 16:05:23;;;;;;;2.92;0.68;;;;;;;14.38;88.66;100988.84;10606451;27;20035;-73
2023/05/02 16:10:24;;;;;;;2.40;0.63;;;;;;;14.19;89.34;100970.59;10623716;27;20138;-72
2023/05/02 16:15:25;;;;;;;1.08;0.43;;;;;;;14.19;89.64;100993.81;10623795;27;20170;-72
2023/05/02 16:20:27;;;;;;;2.17;0.77;;;;;;;13.89;89.42;100964.25;10623367;27;20067;-72
2023/05/02 16:25:28;;;;;;;3.63;0.57;;;;;;;14.01;89.00;101008.25;10608037;27;20039;-71
2023/05/02 16:30:29;;;;;;;2.67;0.50;;;;;;;13.90;88.55;101012.13;10601114;27;20111;-72
2023/05/02 16:35:30;;;;;;;0.93;0.30;;;;;;;13.92;88.31;101017.31;10596408;27;20047;-72
2023/05/02 16:40:31;;;;;;;0.60;0.30;;;;;;;13.79;88.79;101006.34;10623305;27;20445;-72
2023/05/02 16:45:32;;;;;;;2.50;0.80;;;;;;;13.76;89.26;101025.38;10623756;27;20039;-72
2023/05/02 16:50:32;;;;;;;1.55;0.30;;;;;;;13.61;89.02;101019.91;10590204;27;20035;-72
2023/05/02 16:55:33;;;;;;;1.13;0.40;;;;;;;13.56;89.26;101031.13;10538015;28;20046;-72
2023/05/02 17:00:34;;;;;;;0.40;0.20;;;;;;;13.55;89.33;101037.47;10538111;28;20044;-72
2023/05/02 17:05:35;;;;;;;0.68;0.30;;;;;;;13.50;88.89;101041.66;10535624;28;20127;-72
2023/05/02 17:10:35;;;;;;;2.20;0.52;;;;;;;13.43;89.46;101038.81;10537260;28;20063;-72
2023/05/02 17:15:39;;;;;;;0.98;0.20;;;;;;;12.99;89.52;100969.84;10537362;28;20104;-72
2023/05/02 17:20:40;;;;;;;0.90;0.50;;;;;;;13.34;89.86;101048.69;10536785;28;20101;-72
2023/05/02 17:25:41;;;;;;;1.75;0.70;;;;;;;13.29;90.58;101048.34;10537383;28;20089;-72
2023/05/02 17:30:42;;;;;;;1.70;0.60;;;;;;;12.90;90.73;100986.84;10537739;28;20040;-72
2023/05/02 17:35:43;;;;;;;0.70;0.40;;;;;;;13.21;90.96;101043.81;10537559;28;20058;-72
2023/05/02 17:40:43;;;;;;;1.42;0.47;;;;;;;12.90;91.07;101003.66;10545884;28;20035;-72
2023/05/02 17:45:44;;;;;;;3.78;0.60;;;;;;;13.15;91.87;101041.81;10582057;28;20043;-72
2023/05/02 17:50:45;;;;;;;6.65;4.28;;;;;;;12.69;92.67;100972.16;10578398;28;20035;-72
2023/05/02 17:55:46;;;;;;;3.65;2.15;;;;;;;12.68;92.78;100967.00;10595011;28;20045;-72
2023/05/02 18:00:47;;;;;;;2.72;1.13;;;;;;;13.22;92.92;101066.84;10624073;27;20039;-73
2023/05/02 18:05:47;;;;;;;2.35;0.85;;;;;;;13.24;93.12;101067.50;10628567;27;20070;-72
2023/05/02 18:10:48;;;;;;;2.63;1.27;;;;;;;13.24;93.45;101075.50;10629431;27;20055;-72
2023/05/02 18:15:56;;;;;;;1.50;0.70;;;;;;;12.82;94.06;101016.16;10629793;27;20047;-72
2023/05/02 18:20:57;;;;;;;1.40;0.70;;;;;;;13.18;92.89;101078.84;10628712;27;20043;-72
2023/05/02 18:25:58;;;;;;;3.22;0.75;;;;;;;13.04;93.15;101060.81;10628561;27;20043;-72
2023/05/02 18:30:58;;;;;;;0.60;0.40;;;;;;;13.09;92.82;101073.66;10628483;27;20508;-72
2023/05/02 18:35:59;;;;;;;1.42;0.40;;;;;;;12.93;92.64;101048.66;10628876;27;20043;-72
2023/05/02 18:41:00;;;;;;;1.33;0.50;;;;;;;12.84;92.62;101046.16;10623724;27;20031;-73
2023/05/02 18:46:01;;;;;;;1.05;0.40;;;;;;;12.93;93.04;101074.50;10605116;27;20047;-72
2023/05/02 18:51:02;;;;;;;0.50;0.30;;;;;;;12.93;92.92;101074.50;10584400;28;20181;-72
2023/05/02 18:56:10;;;;;;;1.55;0.60;;;;;;;12.70;92.92;101042.31;10584681;28;20161;-73
2023/05/02 19:01:18;;;;;;;1.20;0.40;;;;;;;12.89;94.28;101066.00;10601959;27;20043;-72
2023/05/02 19:06:19;;;;;;;0.40;0.32;;;;;;;12.86;93.17;101071.63;10625546;27;20417;-73
2023/05/02 19:11:20;;;;;;;1.35;0.60;;;;;;;12.83;93.38;101068.47;10625997;27;20054;-73
2023/05/02 19:16:24;;;;;;;1.48;0.60;;;;;;;12.79;93.84;101063.47;10626473;27;20116;-72
2023/05/02 19:21:26;;;;;;;0.98;0.50;;;;;;;12.81;93.54;101073.16;10626299;27;20047;-73
2023/05/02 19:26:26;;;;;;;2.45;0.45;;;;;;;12.76;93.56;101063.81;10625698;27;20050;-72
2023/05/02 19:31:27;;;;;;;1.30;0.45;;;;;;;12.73;93.34;101057.97;10626423;27;20045;-74
2023/05/02 19:36:28;;;;;;;1.92;0.50;;;;;;;12.70;93.00;101063.63;10606665;27;20510;-73
2023/05/02 19:41:29;;;;;;;0.80;0.50;;;;;;;12.12;92.54;100958.78;10612599;27;20047;-73
2023/05/02 19:46:31;;;;;;;0.70;0.40;;;;;;;12.62;92.39;101045.78;10587737;27;20130;-73
2023/05/02 19:51:33;;;;;;;4.53;0.60;;;;;;;12.30;92.44;100990.63;10582789;28;20044;-72
2023/05/02 19:56:34;;;;;;;1.27;0.43;;;;;;;12.51;92.48;101033.63;10582730;28;20588;-73
2023/05/02 20:01:34;;;;;;;0.70;0.30;;;;;;;12.69;92.19;101056.66;10563344;28;20039;-73
2023/05/02 20:06:35;;;;;;;1.08;0.30;;;;;;;12.69;92.32;101065.47;10581247;28;20129;-72
2023/05/02 20:11:36;;;;;;;4.10;0.47;;;;;;;12.59;92.19;101056.78;10581749;28;20062;-74
2023/05/02 20:16:37;;;;;;;3.90;0.30;;;;;;;12.62;92.12;101059.09;10581972;28;20043;-73
2023/05/02 20:21:39;;;;;;;1.13;0.50;;;;;;;12.59;91.75;101056.78;10581050;28;20039;-73
2023/05/02 20:26:39;;;;;;;1.00;0.50;;;;;;;12.51;92.12;101052.28;10580605;28;20035;-73
2023/05/02 20:31:40;;;;;;;3.60;0.75;;;;;;;12.53;92.29;101052.09;10580729;28;20081;-73
2023/05/02 20:36:41;;;;;;;1.10;0.50;;;;;;;12.47;92.25;101058.09;10580651;28;20036;-73
2023/05/02 20:41:42;;;;;;;0.73;0.40;;;;;;;11.98;92.22;100988.69;10579981;28;20039;-73
2023/05/02 20:46:43;;;;;;;2.30;0.40;;;;;;;12.33;92.54;101047.06;10581284;28;20154;-73
2023/05/02 20:51:43;;;;;;;1.10;0.32;;;;;;;12.03;92.66;100997.88;10580226;28;20096;-73
2023/05/02 20:56:44;;;;;;;0.28;0.20;;;;;;;12.53;92.22;101065.41;10580110;28;20049;-73
2023/05/02 21:01:45;;;;;;;0.32;0.28;;;;;;;12.54;92.20;101075.94;10579485;28;20040;-73
2023/05/02 21:06:46;;;;;;;1.42;0.40;;;;;;;12.41;92.14;101048.91;10579696;28;20462;-73
2023/05/02 21:11:47;;;;;;;1.23;0.50;;;;;;;12.54;92.23;101069.78;10556131;28;20097;-73
2023/05/02 21:16:48;;;;;;;0.85;0.45;;;;;;;12.61;92.65;101072.63;10537750;28;20043;-72
2023/05/02 21:21:49;;;;;;;0.80;0.40;;;;;;;12.45;92.83;101050.25;10535698;28;20097;-73
2023/05/02 21:26:50;;;;;;;0.98;0.45;;;;;;;12.52;92.83;101069.94;10537132;28;20040;-73
2023/05/02 21:31:51;;;;;;;1.00;0.43;;;;;;;12.51;92.99;101065.59;10536995;28;20071;-72
2023/05/02 21:36:51;;;;;;;0.93;0.40;;;;;;;12.36;92.85;101053.09;10544018;28;20040;-73
2023/05/02 21:41:52;;;;;;;0.93;0.43;;;;;;;12.42;92.81;101081.75;10560307;27;20035;-73
2023/05/02 21:46:53;;;;;;;4.10;0.60;;;;;;;12.27;93.38;101063.69;10622669;27;20039;-73
2023/05/02 21:51:54;;;;;;;2.28;0.40;;;;;;;12.30;93.61;101062.56;10629492;27;20035;-73
2023/05/02 21:56:54;;;;;;;0.82;0.40;;;;;;;11.83;93.74;100991.94;10630042;27;20031;-73
2023/05/02 22:01:56;;;;;;;1.40;0.43;;;;;;;12.15;93.80;101045.53;10629242;27;20156;-72
2023/05/02 22:06:57;;;;;;;2.15;0.50;;;;;;;12.29;93.89;101077.72;10629938;27;20039;-73
2023/05/02 22:11:58;;;;;;;0.77;0.40;;;;;;;12.23;94.45;101077.50;10628768;27;20062;-72
2023/05/02 22:17:03;;;;;;;1.52;0.60;;;;;;;12.16;94.40;101073.81;10629143;27;20047;-73
2023/05/02 22:22:04;;;;;;;1.20;0.50;;;;;;;11.96;94.72;101054.56;10615589;27;20493;-72
2023/05/02 22:27:06;;;;;;;2.75;0.55;;;;;;;11.74;95.23;101038.13;10627927;27;20035;-72
2023/05/02 22:32:07;;;;;;;6.32;0.70;;;;;;;11.36;95.59;101005.66;10627739;27;20070;-73
2023/05/02 22:37:07;;;;;;;1.73;0.65;;;;;;;11.69;96.29;101075.03;10628394;27;20062;-72
2023/05/02 22:42:08;;;;;;;1.33;0.50;;;;;;;11.63;96.55;101075.66;10609216;27;20043;-73
2023/05/02 22:47:09;;;;;;;1.58;0.55;;;;;;;11.36;96.46;101045.56;10626899;27;20390;-72
2023/05/02 22:52:11;;;;;;;0.85;0.52;;;;;;;11.41;96.57;101066.38;10626804;27;20054;-73
2023/05/02 22:57:12;;;;;;;1.05;0.45;;;;;;;11.46;96.59;101085.38;10627935;27;20039;-72
2023/05/02 23:02:13;;;;;;;1.50;0.45;;;;;;;11.41;96.38;101077.03;10627241;27;20083;-72
2023/05/02 23:07:14;;;;;;;1.35;0.60;;;;;;;11.12;96.56;101053.34;10608761;27;20035;-72